createdAt,value
2022-08-26T00:02:12.974Z,23.31
2022-08-26T00:07:18.544Z,23.26
2022-08-26T00:12:27.856Z,23.19
2022-08-26T00:17:41.723Z,23.14
2022-08-26T00:22:47.278Z,23.05
2022-08-26T00:27:53.878Z,22.97
2022-08-26T00:33:01.876Z,22.87
2022-08-26T00:38:09.160Z,22.77
2022-08-26T00:43:15.572Z,22.68
2022-08-26T00:48:22.961Z,22.60
2022-08-26T00:53:30.914Z,22.54
2022-08-26T00:58:38.354Z,22.49
2022-08-26T01:03:48.295Z,22.50
2022-08-26T01:08:53.882Z,22.49
2022-08-26T01:14:02.818Z,22.50
2022-08-26T01:19:13.765Z,22.48
2022-08-26T01:24:20.234Z,22.53
2022-08-26T01:29:26.267Z,22.55
2022-08-26T01:34:33.255Z,22.57
2022-08-26T01:39:40.237Z,22.57
2022-08-26T01:44:48.240Z,22.57
2022-08-26T01:49:54.922Z,22.58
2022-08-26T01:55:00.731Z,22.57
2022-08-26T02:00:08.681Z,22.55
2022-08-26T02:05:19.250Z,22.51
2022-08-26T02:10:24.595Z,22.48
2022-08-26T02:15:31.430Z,22.45
2022-08-26T02:20:37.533Z,22.41
2022-08-26T02:25:47.857Z,22.37
2022-08-26T02:30:55.551Z,22.32
2022-08-26T02:36:01.697Z,22.27
2022-08-26T02:41:09.321Z,22.20
2022-08-26T02:46:28.005Z,22.13
2022-08-26T02:51:36.033Z,22.06
2022-08-26T02:56:41.833Z,22.01
2022-08-26T03:01:47.701Z,21.97
2022-08-26T03:06:53.208Z,21.93
2022-08-26T03:12:01.396Z,21.91
2022-08-26T03:17:07.832Z,21.88
2022-08-26T03:22:15.997Z,21.88
2022-08-26T03:27:22.059Z,21.87
2022-08-26T03:32:27.583Z,21.89
2022-08-26T03:37:34.225Z,21.89
2022-08-26T03:42:39.913Z,21.90
2022-08-26T03:47:46.352Z,21.92
2022-08-26T03:52:53.909Z,21.92
2022-08-26T03:58:01.033Z,21.94
2022-08-26T04:03:09.786Z,21.95
2022-08-26T04:08:15.832Z,21.95
2022-08-26T04:13:21.968Z,21.96
2022-08-26T04:18:32.653Z,21.96
2022-08-26T04:23:47.056Z,21.97
2022-08-26T04:28:54.922Z,21.99
2022-08-26T04:34:00.675Z,22.00
2022-08-26T04:39:07.009Z,22.00
2022-08-26T04:44:13.274Z,22.00
2022-08-26T04:49:18.855Z,22.01
2022-08-26T04:54:26.749Z,22.01
2022-08-26T04:59:34.970Z,22.03
2022-08-26T05:04:44.758Z,22.04
2022-08-26T05:09:50.454Z,22.05
2022-08-26T05:14:56.347Z,22.07
2022-08-26T05:20:01.944Z,22.09
2022-08-26T05:25:08.420Z,22.11
2022-08-26T05:30:14.758Z,22.14
2022-08-26T05:35:21.185Z,22.19
2022-08-26T05:40:28.605Z,22.23
2022-08-26T05:45:34.280Z,22.28
2022-08-26T05:50:40.837Z,22.33
2022-08-26T05:55:49.538Z,22.39
2022-08-26T06:01:01.378Z,22.44
2022-08-26T06:06:09.970Z,22.50
2022-08-26T06:11:18.654Z,22.60
2022-08-26T06:16:25.238Z,22.71
2022-08-26T06:21:32.424Z,22.84
2022-08-26T06:26:39.019Z,22.98
2022-08-26T06:31:48.266Z,23.11
2022-08-26T06:36:54.029Z,23.30
2022-08-26T06:41:59.337Z,23.48
2022-08-26T06:47:05.232Z,23.67
2022-08-26T06:52:10.755Z,23.86
2022-08-26T06:57:16.868Z,24.03
2022-08-26T07:02:22.475Z,24.16
2022-08-26T07:07:27.778Z,24.28
2022-08-26T07:12:33.426Z,24.39
2022-08-26T07:17:39.195Z,24.49
2022-08-26T07:22:45.793Z,24.60
2022-08-26T07:27:54.307Z,24.70
2022-08-26T07:33:00.904Z,24.82
2022-08-26T07:38:06.421Z,24.93
2022-08-26T07:43:12.286Z,25.06
2022-08-26T07:48:17.982Z,25.20
2022-08-26T07:53:27.472Z,25.32
2022-08-26T07:58:33.318Z,25.44
2022-08-26T08:03:39.152Z,25.57
2022-08-26T08:08:45.055Z,25.69
2022-08-26T08:13:56.543Z,25.84
2022-08-26T08:19:02.459Z,26.04
2022-08-26T08:24:10.413Z,26.26
2022-08-26T08:29:15.819Z,26.47
2022-08-26T08:34:21.839Z,26.65
2022-08-26T08:39:27.939Z,26.82
2022-08-26T08:44:33.490Z,26.99
2022-08-26T08:49:39.136Z,27.16
2022-08-26T08:54:44.662Z,27.31
2022-08-26T08:59:56.570Z,27.45
2022-08-26T09:05:07.990Z,27.59
2022-08-26T09:10:29.241Z,27.72
2022-08-26T09:15:37.929Z,27.86
2022-08-26T09:20:48.441Z,27.99
2022-08-26T09:31:12.889Z,28.20
2022-08-26T09:36:24.795Z,28.29
2022-08-26T09:41:32.147Z,28.36
2022-08-26T09:51:50.113Z,28.49
2022-08-26T09:57:11.910Z,28.54
2022-08-26T10:02:34.823Z,28.59
2022-08-26T10:07:43.489Z,28.64
2022-08-26T10:12:54.271Z,28.70
2022-08-26T10:18:05.998Z,28.75
2022-08-26T10:23:14.049Z,28.83
2022-08-26T10:28:24.658Z,28.87
2022-08-26T10:33:31.288Z,28.90
2022-08-26T10:38:40.223Z,28.94
2022-08-26T10:43:54.051Z,28.97
2022-08-26T10:49:01.032Z,28.97
2022-08-26T10:54:11.805Z,28.98
2022-08-26T10:59:22.967Z,28.98
2022-08-26T11:04:38.405Z,28.98
2022-08-26T11:09:47.687Z,28.99
2022-08-26T11:14:59.135Z,29.02
2022-08-26T11:20:09.144Z,29.06
2022-08-26T11:25:20.190Z,29.13
2022-08-26T11:30:57.507Z,29.19
2022-08-26T11:36:12.062Z,29.27
2022-08-26T11:41:23.228Z,29.34
2022-08-26T11:46:30.872Z,29.41
2022-08-26T11:51:40.880Z,29.47
2022-08-26T11:56:48.836Z,29.55
2022-08-26T12:01:56.239Z,29.63
2022-08-26T12:07:03.748Z,29.69
2022-08-26T12:12:14.091Z,29.74
2022-08-26T12:17:22.535Z,29.81
2022-08-26T12:22:29.195Z,29.88
2022-08-26T12:27:35.568Z,29.94
2022-08-26T12:32:57.554Z,29.99
2022-08-26T12:38:05.814Z,30.03
2022-08-26T12:43:12.572Z,30.06
2022-08-26T12:48:24.504Z,30.09
2022-08-26T12:53:31.761Z,30.14
2022-08-26T12:58:38.094Z,30.19
2022-08-26T13:03:45.257Z,30.22
2022-08-26T13:08:51.970Z,30.24
2022-08-26T13:14:00.757Z,30.26
2022-08-26T13:19:10.582Z,30.29
2022-08-26T13:24:17.709Z,30.30
2022-08-26T13:29:23.271Z,30.31
2022-08-26T13:34:30.328Z,30.31
2022-08-26T13:39:36.100Z,30.32
2022-08-26T13:44:44.039Z,30.35
2022-08-26T13:49:49.506Z,30.37
2022-08-26T13:54:55.497Z,30.40
2022-08-26T14:00:01.359Z,30.42
2022-08-26T14:05:07.807Z,30.45
2022-08-26T14:10:14.008Z,30.47
2022-08-26T14:15:19.989Z,30.47
2022-08-26T14:20:27.983Z,30.47
2022-08-26T14:25:34.707Z,30.49
2022-08-26T14:30:42.008Z,30.50
2022-08-26T14:35:48.946Z,30.50
2022-08-26T14:40:55.095Z,30.50
2022-08-26T14:46:00.521Z,30.50
2022-08-26T14:51:06.322Z,30.48
2022-08-26T14:56:16.511Z,30.47
2022-08-26T15:01:22.465Z,30.44
2022-08-26T15:06:28.506Z,30.42
2022-08-26T15:11:34.488Z,30.41
2022-08-26T15:16:40.555Z,30.39
2022-08-26T15:21:47.644Z,30.37
2022-08-26T15:26:53.431Z,30.35
2022-08-26T15:31:59.575Z,30.33
2022-08-26T15:37:06.177Z,30.29
2022-08-26T15:42:12.377Z,30.27
2022-08-26T15:47:19.142Z,30.23
2022-08-26T15:52:24.647Z,30.17
2022-08-26T15:57:30.640Z,30.12
2022-08-26T16:02:36.386Z,30.05
2022-08-26T16:07:42.447Z,29.98
2022-08-26T16:12:47.953Z,29.90
2022-08-26T16:17:53.731Z,29.82
2022-08-26T16:22:59.329Z,29.75
2022-08-26T16:28:06.112Z,29.67
2022-08-26T16:33:24.966Z,29.59
2022-08-26T16:38:35.420Z,29.50
2022-08-26T16:43:41.038Z,29.39
2022-08-26T16:48:46.917Z,29.29
2022-08-26T16:53:53.886Z,29.18
2022-08-26T16:58:59.779Z,29.05
2022-08-26T17:04:05.728Z,28.93
2022-08-26T17:09:11.527Z,28.81
2022-08-26T17:14:17.102Z,28.67
2022-08-26T17:19:23.298Z,28.55
2022-08-26T17:24:29.274Z,28.42
2022-08-26T17:29:34.931Z,28.29
2022-08-26T17:34:40.797Z,28.16
2022-08-26T17:39:46.278Z,28.02
2022-08-26T17:44:52.390Z,27.88
2022-08-26T17:49:58.066Z,27.75
2022-08-26T17:55:03.849Z,27.62
2022-08-26T18:00:12.506Z,27.48
2022-08-26T18:05:18.728Z,27.34
2022-08-26T18:10:25.906Z,27.20
2022-08-26T18:15:31.967Z,27.06
2022-08-26T18:20:39.515Z,26.93
2022-08-26T18:25:45.919Z,26.79
2022-08-26T18:30:52.146Z,26.65
2022-08-26T18:35:57.857Z,26.52
2022-08-26T18:41:05.598Z,26.38
2022-08-26T18:46:12.197Z,26.26
2022-08-26T18:51:20.036Z,26.13
2022-08-26T18:56:25.997Z,26.03
2022-08-26T19:01:32.673Z,25.92
2022-08-26T19:06:39.861Z,25.80
2022-08-26T19:11:45.905Z,25.69
2022-08-26T19:16:52.878Z,25.59
2022-08-26T19:21:58.522Z,25.49
2022-08-26T19:27:04.279Z,25.39
2022-08-26T19:32:09.931Z,25.30
2022-08-26T19:37:15.480Z,25.21
2022-08-26T19:42:20.963Z,25.09
2022-08-26T19:47:26.329Z,24.98
2022-08-26T19:52:31.939Z,24.89
2022-08-26T19:57:39.669Z,24.77
2022-08-26T20:02:46.044Z,24.66
2022-08-26T20:07:51.967Z,24.55
2022-08-26T20:12:57.826Z,24.43
2022-08-26T20:18:03.748Z,24.32
2022-08-26T20:23:09.574Z,24.22
2022-08-26T20:28:14.955Z,24.12
2022-08-26T20:33:21.298Z,24.03
2022-08-26T20:38:27.370Z,23.94
2022-08-26T20:43:32.824Z,23.85
2022-08-26T20:48:38.181Z,23.76
2022-08-26T20:53:44.702Z,23.69
2022-08-26T20:58:50.124Z,23.60
2022-08-26T21:03:55.935Z,23.54
2022-08-26T21:09:01.885Z,23.46
2022-08-26T21:14:16.620Z,23.38
2022-08-26T21:19:23.584Z,23.29
2022-08-26T21:24:29.326Z,23.19
2022-08-26T21:29:35.045Z,23.09
2022-08-26T21:34:40.337Z,22.98
2022-08-26T21:39:45.689Z,22.86
2022-08-26T21:44:52.862Z,22.75
2022-08-26T21:49:58.553Z,22.65
2022-08-26T21:55:08.989Z,22.58
2022-08-26T22:00:17.060Z,22.48
2022-08-26T22:05:23.081Z,22.45
2022-08-26T22:10:28.608Z,22.39
2022-08-26T22:15:36.071Z,22.35
2022-08-26T22:20:41.838Z,22.31
2022-08-26T22:25:47.634Z,22.27
2022-08-26T22:30:53.207Z,22.24
2022-08-26T22:35:59.373Z,22.19
2022-08-26T22:41:08.320Z,22.14
2022-08-26T22:46:17.822Z,22.11
2022-08-26T22:51:24.141Z,22.06
2022-08-26T22:56:30.368Z,22.01
2022-08-26T23:01:38.055Z,21.95
2022-08-26T23:06:47.450Z,21.89
2022-08-26T23:11:56.413Z,21.83
2022-08-26T23:17:02.764Z,21.75
2022-08-26T23:22:08.889Z,21.64
2022-08-26T23:27:15.018Z,21.61
2022-08-26T23:32:20.694Z,21.58
2022-08-26T23:37:26.496Z,21.52
2022-08-26T23:42:32.885Z,21.46
2022-08-26T23:47:38.856Z,21.42
2022-08-26T23:53:02.090Z,21.35
2022-08-26T23:58:08.219Z,21.29
